sensor_id;sensor_type;location;lat;lon;timestamp;pressure;altitude;pressure_sealevel;temperature;humidity
21109;BME280;10712;52.944;9.098;2023-08-06T00:00:07;100602.16;;;23.19;72.50
21109;BME280;10712;52.944;9.098;2023-08-06T00:02:34;100600.47;;;23.18;72.58
21109;BME280;10712;52.944;9.098;2023-08-06T00:05:01;100603.19;;;23.18;72.34
21109;BME280;10712;52.944;9.098;2023-08-06T00:07:26;100607.97;;;23.16;72.23
21109;BME280;10712;52.944;9.098;2023-08-06T00:09:52;100609.28;;;23.20;72.42
21109;BME280;10712;52.944;9.098;2023-08-06T00:12:18;100613.88;;;23.20;72.42
21109;BME280;10712;52.944;9.098;2023-08-06T00:14:44;100597.75;;;23.18;72.35
21109;BME280;10712;52.944;9.098;2023-08-06T00:17:10;100595.56;;;23.13;72.72
21109;BME280;10712;52.944;9.098;2023-08-06T00:19:36;100592.31;;;23.10;72.70
21109;BME280;10712;52.944;9.098;2023-08-06T00:22:02;100592.69;;;23.07;72.51
21109;BME280;10712;52.944;9.098;2023-08-06T00:24:28;100585.56;;;23.06;72.35
21109;BME280;10712;52.944;9.098;2023-08-06T00:26:54;100593.38;;;23.09;72.64
21109;BME280;10712;52.944;9.098;2023-08-06T00:29:19;100599.13;;;23.14;72.68
21109;BME280;10712;52.944;9.098;2023-08-06T00:31:45;100592.66;;;23.15;72.64
21109;BME280;10712;52.944;9.098;2023-08-06T00:34:11;100598.75;;;23.17;72.64
21109;BME280;10712;52.944;9.098;2023-08-06T00:36:37;100592.00;;;23.13;72.70
21109;BME280;10712;52.944;9.098;2023-08-06T00:39:02;100594.03;;;23.11;72.84
21109;BME280;10712;52.944;9.098;2023-08-06T00:41:28;100596.75;;;23.11;72.88
21109;BME280;10712;52.944;9.098;2023-08-06T00:43:54;100600.81;;;23.15;72.58
21109;BME280;10712;52.944;9.098;2023-08-06T00:46:21;100604.56;;;23.14;72.71
21109;BME280;10712;52.944;9.098;2023-08-06T00:48:47;100606.06;;;23.16;72.96
21109;BME280;10712;52.944;9.098;2023-08-06T00:51:14;100605.41;;;23.14;72.99
21109;BME280;10712;52.944;9.098;2023-08-06T00:53:40;100586.88;;;23.10;72.97
21109;BME280;10712;52.944;9.098;2023-08-06T00:56:07;100590.66;;;23.09;72.73
21109;BME280;10712;52.944;9.098;2023-08-06T00:58:35;100587.94;;;23.09;72.91
21109;BME280;10712;52.944;9.098;2023-08-06T01:01:02;100580.81;;;23.08;72.96
21109;BME280;10712;52.944;9.098;2023-08-06T01:03:28;100583.53;;;23.08;72.88
21109;BME280;10712;52.944;9.098;2023-08-06T01:05:55;100574.00;;;23.04;72.76
21109;BME280;10712;52.944;9.098;2023-08-06T01:08:56;100584.88;;;23.04;72.71
21109;BME280;10712;52.944;9.098;2023-08-06T01:11:39;100588.09;;;23.07;72.81
21109;BME280;10712;52.944;9.098;2023-08-06T01:14:31;100576.72;;;23.04;73.16
21109;BME280;10712;52.944;9.098;2023-08-06T01:17:01;100563.34;;;23.02;72.83
21109;BME280;10712;52.944;9.098;2023-08-06T01:19:27;100568.94;;;23.01;72.81
21109;BME280;10712;52.944;9.098;2023-08-06T01:21:52;100561.97;;;22.98;73.01
21109;BME280;10712;52.944;9.098;2023-08-06T01:24:18;100556.03;;;22.95;72.69
21109;BME280;10712;52.944;9.098;2023-08-06T01:26:56;100551.97;;;22.91;73.00
21109;BME280;10712;52.944;9.098;2023-08-06T01:29:44;100554.69;;;22.91;72.92
21109;BME280;10712;52.944;9.098;2023-08-06T01:32:15;100551.78;;;22.92;73.19
21109;BME280;10712;52.944;9.098;2023-08-06T01:34:44;100550.78;;;22.93;72.76
21109;BME280;10712;52.944;9.098;2023-08-06T01:37:12;100556.38;;;22.92;72.83
21109;BME280;10712;52.944;9.098;2023-08-06T01:39:42;100545.50;;;22.92;73.05
21109;BME280;10712;52.944;9.098;2023-08-06T01:42:08;100541.47;;;22.88;73.09
21109;BME280;10712;52.944;9.098;2023-08-06T01:44:34;100550.47;;;22.80;72.97
21109;BME280;10712;52.944;9.098;2023-08-06T01:47:00;100541.16;;;22.74;73.07
21109;BME280;10712;52.944;9.098;2023-08-06T01:49:26;100529.06;;;22.69;72.98
21109;BME280;10712;52.944;9.098;2023-08-06T01:51:53;100531.97;;;22.67;73.08
21109;BME280;10712;52.944;9.098;2023-08-06T01:54:19;100523.47;;;22.62;72.92
21109;BME280;10712;52.944;9.098;2023-08-06T01:56:44;100523.84;;;22.59;73.04
21109;BME280;10712;52.944;9.098;2023-08-06T01:59:10;100523.84;;;22.59;73.69
21109;BME280;10712;52.944;9.098;2023-08-06T02:01:36;100518.72;;;22.64;73.57
21109;BME280;10712;52.944;9.098;2023-08-06T02:04:02;100522.78;;;22.68;73.59
21109;BME280;10712;52.944;9.098;2023-08-06T02:06:28;100513.63;;;22.69;73.74
21109;BME280;10712;52.944;9.098;2023-08-06T02:08:54;100517.19;;;22.70;73.38
21109;BME280;10712;52.944;9.098;2023-08-06T02:11:20;100518.88;;;22.71;73.47
21109;BME280;10712;52.944;9.098;2023-08-06T02:13:46;100516.00;;;22.64;73.18
21109;BME280;10712;52.944;9.098;2023-08-06T02:16:16;100507.16;;;22.62;73.32
21109;BME280;10712;52.944;9.098;2023-08-06T02:18:42;100511.44;;;22.65;73.31
21109;BME280;10712;52.944;9.098;2023-08-06T02:21:08;100518.56;;;22.66;73.19
21109;BME280;10712;52.944;9.098;2023-08-06T02:23:33;100513.97;;;22.66;73.43
21109;BME280;10712;52.944;9.098;2023-08-06T02:26:01;100510.56;;;22.64;73.49
21109;BME280;10712;52.944;9.098;2023-08-06T02:28:29;100506.00;;;22.65;73.49
21109;BME280;10712;52.944;9.098;2023-08-06T02:30:55;100502.44;;;22.64;73.44
21109;BME280;10712;52.944;9.098;2023-08-06T02:33:22;100503.44;;;22.63;73.25
21109;BME280;10712;52.944;9.098;2023-08-06T02:35:47;100503.44;;;22.63;73.17
21109;BME280;10712;52.944;9.098;2023-08-06T02:38:13;100499.72;;;22.64;73.27
21109;BME280;10712;52.944;9.098;2023-08-06T02:40:47;100504.13;;;22.65;73.58
21109;BME280;10712;52.944;9.098;2023-08-06T02:43:13;100502.59;;;22.63;73.63
21109;BME280;10712;52.944;9.098;2023-08-06T02:45:39;100500.41;;;22.58;73.28
21109;BME280;10712;52.944;9.098;2023-08-06T02:48:05;100505.00;;;22.58;73.62
21109;BME280;10712;52.944;9.098;2023-08-06T02:50:38;100497.84;;;22.57;73.83
21109;BME280;10712;52.944;9.098;2023-08-06T02:53:05;100497.31;;;22.61;73.99
21109;BME280;10712;52.944;9.098;2023-08-06T02:55:32;100499.72;;;22.64;74.04
21109;BME280;10712;52.944;9.098;2023-08-06T02:58:01;100491.22;;;22.67;74.17
21109;BME280;10712;52.944;9.098;2023-08-06T03:00:31;100486.44;;;22.69;73.81
21109;BME280;10712;52.944;9.098;2023-08-06T03:02:58;100489.84;;;22.71;74.21
21109;BME280;10712;52.944;9.098;2023-08-06T03:05:51;100485.44;;;22.70;73.81
21109;BME280;10712;52.944;9.098;2023-08-06T03:08:19;100476.44;;;22.70;74.22
21109;BME280;10712;52.944;9.098;2023-08-06T03:10:52;100473.25;;;22.74;74.01
21109;BME280;10712;52.944;9.098;2023-08-06T03:13:19;100472.19;;;22.75;74.14
21109;BME280;10712;52.944;9.098;2023-08-06T03:15:56;100473.91;;;22.76;74.12
21109;BME280;10712;52.944;9.098;2023-08-06T03:18:22;100468.31;;;22.78;74.01
21109;BME280;10712;52.944;9.098;2023-08-06T03:20:50;100474.59;;;22.78;74.04
21109;BME280;10712;52.944;9.098;2023-08-06T03:23:17;100469.50;;;22.75;74.37
21109;BME280;10712;52.944;9.098;2023-08-06T03:25:44;100458.97;;;22.72;74.35
21109;BME280;10712;52.944;9.098;2023-08-06T03:28:12;100458.28;;;22.70;74.06
21109;BME280;10712;52.944;9.098;2023-08-06T03:30:38;100449.13;;;22.71;74.25
21109;BME280;10712;52.944;9.098;2023-08-06T03:33:06;100454.41;;;22.73;74.21
21109;BME280;10712;52.944;9.098;2023-08-06T03:35:31;100437.22;;;22.72;74.54
21109;BME280;10712;52.944;9.098;2023-08-06T03:37:57;100434.53;;;22.72;74.30
21109;BME280;10712;52.944;9.098;2023-08-06T03:40:23;100431.81;;;22.72;74.46
21109;BME280;10712;52.944;9.098;2023-08-06T03:42:49;100432.81;;;22.71;74.37
21109;BME280;10712;52.944;9.098;2023-08-06T03:45:15;100429.97;;;22.73;74.86
21109;BME280;10712;52.944;9.098;2023-08-06T03:47:42;100430.81;;;22.73;74.49
21109;BME280;10712;52.944;9.098;2023-08-06T03:50:08;100434.38;;;22.74;74.35
21109;BME280;10712;52.944;9.098;2023-08-06T03:52:34;100424.50;;;22.81;74.63
21109;BME280;10712;52.944;9.098;2023-08-06T03:55:00;100425.88;;;22.77;74.44
21109;BME280;10712;52.944;9.098;2023-08-06T03:57:26;100420.25;;;22.78;74.73
21109;BME280;10712;52.944;9.098;2023-08-06T03:59:52;100420.25;;;22.78;74.46
21109;BME280;10712;52.944;9.098;2023-08-06T04:02:18;100419.06;;;22.81;74.64
21109;BME280;10712;52.944;9.098;2023-08-06T04:04:43;100428.38;;;22.87;74.79
21109;BME280;10712;52.944;9.098;2023-08-06T04:07:09;100429.72;;;22.91;74.35
21109;BME280;10712;52.944;9.098;2023-08-06T04:09:59;100432.13;;;22.86;74.29
21109;BME280;10712;52.944;9.098;2023-08-06T04:12:26;100431.28;;;22.85;74.30
21109;BME280;10712;52.944;9.098;2023-08-06T04:14:52;100421.59;;;22.83;74.68
21109;BME280;10712;52.944;9.098;2023-08-06T04:17:21;100420.56;;;22.84;74.41
21109;BME280;10712;52.944;9.098;2023-08-06T04:19:51;100425.34;;;22.82;74.67
21109;BME280;10712;52.944;9.098;2023-08-06T04:22:18;100429.09;;;22.81;74.42
21109;BME280;10712;52.944;9.098;2023-08-06T04:24:44;100430.41;;;22.85;74.36
21109;BME280;10712;52.944;9.098;2023-08-06T04:27:12;100429.09;;;22.81;74.68
21109;BME280;10712;52.944;9.098;2023-08-06T04:29:38;100424.50;;;22.81;74.95
21109;BME280;10712;52.944;9.098;2023-08-06T04:32:07;100422.81;;;22.80;74.57
21109;BME280;10712;52.944;9.098;2023-08-06T04:34:34;100423.66;;;22.81;74.93
21109;BME280;10712;52.944;9.098;2023-08-06T04:37:02;100421.78;;;22.81;74.93
21109;BME280;10712;52.944;9.098;2023-08-06T04:39:28;100429.09;;;22.81;74.74
21109;BME280;10712;52.944;9.098;2023-08-06T04:41:56;100427.03;;;22.83;74.75
21109;BME280;10712;52.944;9.098;2023-08-06T04:44:24;100429.09;;;22.81;74.61
21109;BME280;10712;52.944;9.098;2023-08-06T04:46:50;100428.06;;;22.82;74.88
21109;BME280;10712;52.944;9.098;2023-08-06T04:49:17;100431.13;;;22.78;75.03
21109;BME280;10712;52.944;9.098;2023-08-06T04:51:43;100432.13;;;22.86;74.77
21109;BME280;10712;52.944;9.098;2023-08-06T04:54:09;100431.09;;;22.87;74.77
21109;BME280;10712;52.944;9.098;2023-08-06T04:56:35;100427.53;;;22.86;74.67
21109;BME280;10712;52.944;9.098;2023-08-06T04:59:01;100427.72;;;22.85;75.05
21109;BME280;10712;52.944;9.098;2023-08-06T05:01:27;100428.38;;;22.87;75.05
21109;BME280;10712;52.944;9.098;2023-08-06T05:03:54;100431.41;;;22.92;74.75
21109;BME280;10712;52.944;9.098;2023-08-06T05:06:19;100435.16;;;22.91;74.98
21109;BME280;10712;52.944;9.098;2023-08-06T05:08:45;100428.88;;;22.90;74.72
21109;BME280;10712;52.944;9.098;2023-08-06T05:11:11;100429.06;;;22.89;74.73
21109;BME280;10712;52.944;9.098;2023-08-06T05:13:37;100423.28;;;22.84;74.78
21109;BME280;10712;52.944;9.098;2023-08-06T05:16:03;100430.41;;;22.85;74.76
21109;BME280;10712;52.944;9.098;2023-08-06T05:18:28;100431.09;;;22.87;74.70
21109;BME280;10712;52.944;9.098;2023-08-06T05:20:56;100437.16;;;22.97;74.06
21109;BME280;10712;52.944;9.098;2023-08-06T05:23:21;100439.59;;;22.84;74.45
21109;BME280;10712;52.944;9.098;2023-08-06T05:25:47;100437.56;;;22.86;74.29
21109;BME280;10712;52.944;9.098;2023-08-06T05:28:13;100437.56;;;22.77;74.78
21109;BME280;10712;52.944;9.098;2023-08-06T05:30:40;100437.03;;;22.82;74.69
21109;BME280;10712;52.944;9.098;2023-08-06T05:33:06;100440.59;;;22.83;74.89
21109;BME280;10712;52.944;9.098;2023-08-06T05:35:32;100447.09;;;22.82;74.79
21109;BME280;10712;52.944;9.098;2023-08-06T05:37:57;100445.72;;;22.77;74.60
21109;BME280;10712;52.944;9.098;2023-08-06T05:40:23;100446.09;;;22.74;74.89
21109;BME280;10712;52.944;9.098;2023-08-06T05:42:54;100445.03;;;22.75;74.71
21109;BME280;10712;52.944;9.098;2023-08-06T05:45:19;100438.97;;;22.73;75.01
21109;BME280;10712;52.944;9.098;2023-08-06T05:47:45;100439.63;;;22.75;74.95
21109;BME280;10712;52.944;9.098;2023-08-06T05:50:13;100443.69;;;22.80;75.02
21109;BME280;10712;52.944;9.098;2023-08-06T05:52:38;100448.75;;;22.83;74.79
21109;BME280;10712;52.944;9.098;2023-08-06T05:55:05;100440.09;;;22.87;75.03
21109;BME280;10712;52.944;9.098;2023-08-06T05:57:31;100439.72;;;22.90;75.31
21109;BME280;10712;52.944;9.098;2023-08-06T05:59:57;100438.88;;;22.90;75.14
21109;BME280;10712;52.944;9.098;2023-08-06T06:02:22;100440.25;;;22.94;75.11
21109;BME280;10712;52.944;9.098;2023-08-06T06:04:48;100441.25;;;22.93;75.21
21109;BME280;10712;52.944;9.098;2023-08-06T06:07:14;100435.66;;;22.94;75.09
21109;BME280;10712;52.944;9.098;2023-08-06T06:09:40;100438.00;;;22.97;75.29
21109;BME280;10712;52.944;9.098;2023-08-06T06:12:06;100441.56;;;22.98;75.19
21109;BME280;10712;52.944;9.098;2023-08-06T06:14:32;100439.84;;;23.05;74.97
21109;BME280;10712;52.944;9.098;2023-08-06T06:16:59;100442.94;;;23.02;75.14
21109;BME280;10712;52.944;9.098;2023-08-06T06:19:25;100444.25;;;23.06;75.10
21109;BME280;10712;52.944;9.098;2023-08-06T06:21:52;100448.81;;;23.13;74.75
21109;BME280;10712;52.944;9.098;2023-08-06T06:24:18;100452.38;;;23.14;74.68
21109;BME280;10712;52.944;9.098;2023-08-06T06:26:44;100445.94;;;23.07;74.88
21109;BME280;10712;52.944;9.098;2023-08-06T06:29:10;100449.97;;;23.19;74.28
21109;BME280;10712;52.944;9.098;2023-08-06T06:31:36;100440.84;;;23.04;74.76
21109;BME280;10712;52.944;9.098;2023-08-06T06:34:01;100444.59;;;23.03;74.92
21109;BME280;10712;52.944;9.098;2023-08-06T06:36:27;100442.56;;;23.05;75.02
21109;BME280;10712;52.944;9.098;2023-08-06T06:38:53;100448.28;;;23.10;74.87
21109;BME280;10712;52.944;9.098;2023-08-06T06:41:18;100441.63;;;23.21;74.47
21109;BME280;10712;52.944;9.098;2023-08-06T06:43:45;100444.66;;;23.26;74.19
21109;BME280;10712;52.944;9.098;2023-08-06T06:46:10;100441.50;;;23.14;74.65
21109;BME280;10712;52.944;9.098;2023-08-06T06:48:36;100444.91;;;23.16;74.84
21109;BME280;10712;52.944;9.098;2023-08-06T06:51:02;100442.66;;;23.20;74.71
21109;BME280;10712;52.944;9.098;2023-08-06T06:53:28;100435.66;;;23.25;74.92
21109;BME280;10712;52.944;9.098;2023-08-06T06:55:55;100433.94;;;23.24;74.85
21109;BME280;10712;52.944;9.098;2023-08-06T06:58:22;100436.31;;;23.27;74.89
21109;BME280;10712;52.944;9.098;2023-08-06T07:00:48;100438.69;;;23.30;74.96
21109;BME280;10712;52.944;9.098;2023-08-06T07:03:17;100441.03;;;23.33;74.58
21109;BME280;10712;52.944;9.098;2023-08-06T07:05:44;100440.69;;;23.36;74.82
21109;BME280;10712;52.944;9.098;2023-08-06T07:08:10;100439.59;;;23.45;74.83
21109;BME280;10712;52.944;9.098;2023-08-06T07:10:36;100437.25;;;23.50;74.93
21109;BME280;10712;52.944;9.098;2023-08-06T07:13:01;100437.59;;;23.47;74.59
21109;BME280;10712;52.944;9.098;2023-08-06T07:15:27;100434.53;;;23.42;74.76
21109;BME280;10712;52.944;9.098;2023-08-06T07:17:53;100439.59;;;23.45;74.76
21109;BME280;10712;52.944;9.098;2023-08-06T07:20:19;100447.75;;;23.53;74.59
21109;BME280;10712;52.944;9.098;2023-08-06T07:22:45;100438.56;;;23.54;74.16
21109;BME280;10712;52.944;9.098;2023-08-06T07:25:11;100440.00;;;23.65;74.10
21109;BME280;10712;52.944;9.098;2023-08-06T07:27:36;100440.63;;;23.75;74.10
21109;BME280;10712;52.944;9.098;2023-08-06T07:30:03;100440.38;;;23.85;73.96
21109;BME280;10712;52.944;9.098;2023-08-06T07:32:28;100435.91;;;23.92;73.96
21109;BME280;10712;52.944;9.098;2023-08-06T07:34:54;100434.22;;;23.91;73.94
21109;BME280;10712;52.944;9.098;2023-08-06T07:37:25;100435.28;;;23.82;73.66
21109;BME280;10712;52.944;9.098;2023-08-06T07:39:50;100427.19;;;23.74;73.55
21109;BME280;10712;52.944;9.098;2023-08-06T07:42:16;100427.19;;;23.74;73.70
21109;BME280;10712;52.944;9.098;2023-08-06T07:44:42;100432.28;;;23.77;73.96
21109;BME280;10712;52.944;9.098;2023-08-06T07:47:08;100433.13;;;23.77;73.88
21109;BME280;10712;52.944;9.098;2023-08-06T07:49:33;100432.75;;;23.80;73.85
21109;BME280;10712;52.944;9.098;2023-08-06T07:51:59;100428.53;;;23.78;73.90
21109;BME280;10712;52.944;9.098;2023-08-06T07:54:25;100429.56;;;23.77;73.61
21109;BME280;10712;52.944;9.098;2023-08-06T07:56:50;100426.47;;;23.80;73.68
21109;BME280;10712;52.944;9.098;2023-08-06T07:59:17;100423.31;;;23.91;73.81
21109;BME280;10712;52.944;9.098;2023-08-06T08:01:42;100413.31;;;24.06;74.02
21109;BME280;10712;52.944;9.098;2023-08-06T08:04:08;100411.84;;;24.18;73.88
21109;BME280;10712;52.944;9.098;2023-08-06T08:06:34;100406.34;;;24.26;73.80
21109;BME280;10712;52.944;9.098;2023-08-06T08:09:00;100403.25;;;24.29;73.72
21109;BME280;10712;52.944;9.098;2023-08-06T08:11:26;100407.00;;;24.28;73.94
21109;BME280;10712;52.944;9.098;2023-08-06T08:13:52;100408.31;;;24.32;73.61
21109;BME280;10712;52.944;9.098;2023-08-06T08:16:17;100405.31;;;24.42;73.50
21109;BME280;10712;52.944;9.098;2023-08-06T08:18:43;100410.50;;;24.52;73.28
21109;BME280;10712;52.944;9.098;2023-08-06T08:21:09;100411.44;;;24.59;72.92
21109;BME280;10712;52.944;9.098;2023-08-06T08:23:35;100415.19;;;24.58;73.02
21109;BME280;10712;52.944;9.098;2023-08-06T08:26:01;100408.63;;;24.67;72.59
21109;BME280;10712;52.944;9.098;2023-08-06T08:28:27;100402.00;;;24.76;72.76
21109;BME280;10712;52.944;9.098;2023-08-06T08:30:53;100405.03;;;24.81;73.01
21109;BME280;10712;52.944;9.098;2023-08-06T08:33:20;100398.81;;;24.87;72.94
21109;BME280;10712;52.944;9.098;2023-08-06T08:35:46;100395.25;;;24.87;72.80
21109;BME280;10712;52.944;9.098;2023-08-06T08:38:12;100398.09;;;24.93;72.82
21109;BME280;10712;52.944;9.098;2023-08-06T08:40:46;100397.31;;;24.99;72.81
21109;BME280;10712;52.944;9.098;2023-08-06T08:43:15;100392.44;;;25.09;72.77
21109;BME280;10712;52.944;9.098;2023-08-06T08:45:42;100391.72;;;25.22;72.69
21109;BME280;10712;52.944;9.098;2023-08-06T08:48:12;100387.63;;;25.33;72.32
21109;BME280;10712;52.944;9.098;2023-08-06T08:50:40;100388.97;;;25.37;72.42
21109;BME280;10712;52.944;9.098;2023-08-06T08:53:08;100383.81;;;25.27;71.79
21109;BME280;10712;52.944;9.098;2023-08-06T08:55:34;100388.94;;;25.16;71.39
21109;BME280;10712;52.944;9.098;2023-08-06T08:58:00;100390.34;;;25.11;71.10
21109;BME280;10712;52.944;9.098;2023-08-06T09:00:28;100382.25;;;25.03;70.70
21109;BME280;10712;52.944;9.098;2023-08-06T09:02:55;100389.16;;;24.99;70.48
21109;BME280;10712;52.944;9.098;2023-08-06T09:05:24;100385.38;;;25.00;70.45
21109;BME280;10712;52.944;9.098;2023-08-06T09:07:52;100387.22;;;25.15;70.49
21109;BME280;10712;52.944;9.098;2023-08-06T09:10:21;100382.59;;;25.30;70.46
21109;BME280;10712;52.944;9.098;2023-08-06T09:12:52;100371.03;;;25.49;70.74
21109;BME280;10712;52.944;9.098;2023-08-06T09:15:20;100371.47;;;25.52;70.35
21109;BME280;10712;52.944;9.098;2023-08-06T09:17:46;100371.94;;;25.56;70.13
21109;BME280;10712;52.944;9.098;2023-08-06T09:20:14;100369.97;;;25.65;70.54
21109;BME280;10712;52.944;9.098;2023-08-06T09:22:40;100380.56;;;25.81;70.69
21109;BME280;10712;52.944;9.098;2023-08-06T09:25:08;100379.84;;;25.94;70.27
21109;BME280;10712;52.944;9.098;2023-08-06T09:27:39;100379.97;;;26.07;70.71
21109;BME280;10712;52.944;9.098;2023-08-06T09:30:07;100372.91;;;26.19;70.61
21109;BME280;10712;52.944;9.098;2023-08-06T09:32:46;100368.47;;;26.18;70.60
21109;BME280;10712;52.944;9.098;2023-08-06T09:35:19;100371.22;;;26.18;69.66
21109;BME280;10712;52.944;9.098;2023-08-06T09:37:45;100378.09;;;26.14;69.53
21109;BME280;10712;52.944;9.098;2023-08-06T09:40:31;100379.78;;;26.15;69.55
21109;BME280;10712;52.944;9.098;2023-08-06T09:42:58;100376.69;;;26.18;69.38
21109;BME280;10712;52.944;9.098;2023-08-06T09:45:36;100370.38;;;26.17;69.18
21109;BME280;10712;52.944;9.098;2023-08-06T09:48:09;100370.41;;;26.24;69.41
21109;BME280;10712;52.944;9.098;2023-08-06T09:50:37;100374.34;;;26.43;69.39
21109;BME280;10712;52.944;9.098;2023-08-06T09:53:06;100372.53;;;26.56;69.20
21109;BME280;10712;52.944;9.098;2023-08-06T09:55:33;100364.00;;;26.73;69.16
21109;BME280;10712;52.944;9.098;2023-08-06T09:58:00;100359.19;;;26.81;68.49
21109;BME280;10712;52.944;9.098;2023-08-06T10:00:26;100364.94;;;26.93;68.47
21109;BME280;10712;52.944;9.098;2023-08-06T10:02:53;100369.59;;;26.99;68.12
21109;BME280;10712;52.944;9.098;2023-08-06T10:05:25;100371.19;;;26.87;67.58
21109;BME280;10712;52.944;9.098;2023-08-06T10:07:52;100361.56;;;26.91;67.07
21109;BME280;10712;52.944;9.098;2023-08-06T10:10:19;100365.78;;;26.93;66.99
21109;BME280;10712;52.944;9.098;2023-08-06T10:12:52;100354.47;;;27.03;66.62
21109;BME280;10712;52.944;9.098;2023-08-06T10:15:28;100352.00;;;27.21;66.74
21109;BME280;10712;52.944;9.098;2023-08-06T10:17:57;100353.72;;;27.35;66.52
21109;BME280;10712;52.944;9.098;2023-08-06T10:20:25;100346.59;;;27.54;66.05
21109;BME280;10712;52.944;9.098;2023-08-06T10:23:05;100350.38;;;27.60;65.98
21109;BME280;10712;52.944;9.098;2023-08-06T10:25:34;100347.88;;;27.71;66.12
21109;BME280;10712;52.944;9.098;2023-08-06T10:28:07;100355.44;;;27.82;66.17
21109;BME280;10712;52.944;9.098;2023-08-06T10:30:43;100339.84;;;27.96;65.46
21109;BME280;10712;52.944;9.098;2023-08-06T10:33:09;100343.03;;;28.06;65.22
21109;BME280;10712;52.944;9.098;2023-08-06T10:35:45;100344.47;;;28.09;64.92
21109;BME280;10712;52.944;9.098;2023-08-06T10:38:20;100345.75;;;28.06;63.33
21109;BME280;10712;52.944;9.098;2023-08-06T10:43:35;100335.66;;;27.87;63.28
21109;BME280;10712;52.944;9.098;2023-08-06T10:46:09;100340.53;;;27.72;62.73
21109;BME280;10712;52.944;9.098;2023-08-06T10:48:45;100340.94;;;27.56;63.54
21109;BME280;10712;52.944;9.098;2023-08-06T10:51:13;100340.72;;;27.64;63.88
21109;BME280;10712;52.944;9.098;2023-08-06T10:53:52;100339.44;;;27.73;63.92
21109;BME280;10712;52.944;9.098;2023-08-06T10:56:25;100335.66;;;27.87;63.74
21109;BME280;10712;52.944;9.098;2023-08-06T10:58:56;100332.09;;;27.93;63.45
21109;BME280;10712;52.944;9.098;2023-08-06T11:01:23;100324.06;;;27.98;62.29
21109;BME280;10712;52.944;9.098;2023-08-06T11:03:50;100317.09;;;28.02;62.07
21109;BME280;10712;52.944;9.098;2023-08-06T11:06:20;100327.22;;;28.15;61.55
21109;BME280;10712;52.944;9.098;2023-08-06T11:08:52;100324.28;;;28.16;61.60
21109;BME280;10712;52.944;9.098;2023-08-06T11:11:19;100325.09;;;28.24;62.10
21109;BME280;10712;52.944;9.098;2023-08-06T11:13:47;100324.47;;;28.28;62.41
21109;BME280;10712;52.944;9.098;2023-08-06T11:16:14;100324.63;;;28.40;61.89
21109;BME280;10712;52.944;9.098;2023-08-06T11:18:41;100331.84;;;28.28;60.87
21109;BME280;10712;52.944;9.098;2023-08-06T11:21:10;100325.09;;;28.10;60.11
21109;BME280;10712;52.944;9.098;2023-08-06T11:23:40;100336.47;;;28.01;60.31
21109;BME280;10712;52.944;9.098;2023-08-06T11:26:07;100317.94;;;27.96;60.88
21109;BME280;10712;52.944;9.098;2023-08-06T11:28:33;100319.66;;;27.97;60.38
21109;BME280;10712;52.944;9.098;2023-08-06T11:30:59;100318.78;;;28.03;60.17
21109;BME280;10712;52.944;9.098;2023-08-06T11:33:28;100318.78;;;28.03;59.83
21109;BME280;10712;52.944;9.098;2023-08-06T11:35:57;100308.25;;;28.13;59.79
21109;BME280;10712;52.944;9.098;2023-08-06T11:38:28;100305.28;;;28.21;61.30
21109;BME280;10712;52.944;9.098;2023-08-06T11:40:55;100307.78;;;28.30;61.60
21109;BME280;10712;52.944;9.098;2023-08-06T11:43:21;100311.19;;;28.25;60.07
21109;BME280;10712;52.944;9.098;2023-08-06T11:45:49;100304.69;;;28.19;60.66
21109;BME280;10712;52.944;9.098;2023-08-06T11:48:16;100298.53;;;28.31;60.41
21109;BME280;10712;52.944;9.098;2023-08-06T11:50:43;100303.56;;;28.40;60.82
21109;BME280;10712;52.944;9.098;2023-08-06T11:53:13;100302.28;;;28.43;60.75
21109;BME280;10712;52.944;9.098;2023-08-06T11:55:42;100298.47;;;28.44;60.24
21109;BME280;10712;52.944;9.098;2023-08-06T11:58:10;100296.75;;;28.56;60.65
21109;BME280;10712;52.944;9.098;2023-08-06T12:00:37;100292.91;;;28.64;59.11
21109;BME280;10712;52.944;9.098;2023-08-06T12:03:05;100290.59;;;28.67;59.81
21109;BME280;10712;52.944;9.098;2023-08-06T12:05:31;100288.66;;;28.74;59.47
21109;BME280;10712;52.944;9.098;2023-08-06T12:08:01;100289.09;;;28.78;58.39
21109;BME280;10712;52.944;9.098;2023-08-06T12:10:30;100290.97;;;28.71;58.05
21109;BME280;10712;52.944;9.098;2023-08-06T12:12:56;100282.38;;;28.67;58.07
21109;BME280;10712;52.944;9.098;2023-08-06T12:15:22;100276.44;;;28.70;59.18
21109;BME280;10712;52.944;9.098;2023-08-06T12:17:49;100277.72;;;28.68;58.39
21109;BME280;10712;52.944;9.098;2023-08-06T12:20:16;100271.78;;;28.77;58.84
21109;BME280;10712;52.944;9.098;2023-08-06T12:22:42;100272.59;;;28.84;58.68
21109;BME280;10712;52.944;9.098;2023-08-06T12:25:10;100270.06;;;28.89;58.72
21109;BME280;10712;52.944;9.098;2023-08-06T12:27:44;100262.44;;;28.91;58.69
21109;BME280;10712;52.944;9.098;2023-08-06T12:30:12;100256.84;;;29.05;58.20
21109;BME280;10712;52.944;9.098;2023-08-06T12:32:38;100259.75;;;29.16;57.90
21109;BME280;10712;52.944;9.098;2023-08-06T12:35:05;100264.38;;;29.16;58.13
21109;BME280;10712;52.944;9.098;2023-08-06T12:37:33;100268.72;;;28.98;57.12
21109;BME280;10712;52.944;9.098;2023-08-06T12:39:59;100264.09;;;28.92;58.75
21109;BME280;10712;52.944;9.098;2023-08-06T12:42:25;100255.19;;;29.04;59.03
21109;BME280;10712;52.944;9.098;2023-08-06T12:44:51;100259.16;;;29.08;59.20
21109;BME280;10712;52.944;9.098;2023-08-06T12:47:18;100264.09;;;28.92;57.26
21109;BME280;10712;52.944;9.098;2023-08-06T12:49:44;100263.97;;;28.81;57.29
21109;BME280;10712;52.944;9.098;2023-08-06T12:52:10;100253.13;;;28.92;56.84
21109;BME280;10712;52.944;9.098;2023-08-06T12:54:38;100247.97;;;29.09;57.46